• Join FlightAware (Why Join?)
  • Login
  • US Flag 
01:14PM EST


 

Airport Tracker/Info


-or-


 

Live Flight TrackerFlight Track Log ✈ N118JV ✈ 01-May-2013 ✈ KHOU - MMAN / NTR

Flight Track Log - Related Links

Times and Time Zones

All times are in EDT time to prevent confusion due to time zone crossing. See the N118JV flight status page for this flight to view local times or setup timezone preferences in your user account.

Time Position Orientation Groundspeed Altitude Reporting Facility
EDT Latitude Longitude Course Direction KTS MPH feet Rate Location/Type
10:34PM 29.6647 -95.2881 309° West 138 159 400  Level Houston Center
10:35PM 29.6914 -95.3256 309° West 138 159 2,100 1,440 Climbing Houston Center
10:36PM 29.6933 -95.3711 273° West 147 169 3,500 1,380 Climbing Houston Center
10:37PM 29.6764 -95.4139 246° West 162 186 5,000 1,260 Climbing Houston Center
10:38PM 29.6461 -95.4467 223° Southwest 155 178 6,300 1,380 Climbing Houston Center
10:39PM 29.6025 -95.4806 214° Southwest 158 182 8,000 1,500 Climbing Houston Center
10:40PM 29.5689 -95.5036 211° Southwest 156 180 9,200 1,260 Climbing Houston Center
10:41PM 29.5261 -95.5383 215° Southwest 164 189 10,600 1,260 Climbing Houston Center
10:42PM 29.4869 -95.5692 214° Southwest 171 197 12,000 1,260 Climbing Houston Center
10:43PM 29.4464 -95.5989 213° Southwest 173 199 13,200 1,200 Climbing Houston Center
10:44PM 29.4036 -95.6328 215° Southwest 182 209 14,500 1,200 Climbing Houston Center
10:45PM 29.3600 -95.6653 213° Southwest 186 214 15,700 1,140 Climbing Houston Center
10:46PM 29.3164 -95.6986 214° Southwest 189 217 16,900 1,320 Climbing Houston Center
10:47PM 29.2736 -95.7328 215° Southwest 188 216 18,400 960 Climbing Houston Center
10:48PM 29.2286 -95.7686 215° Southwest 195 224 18,900 240 Climbing Houston Center
10:49PM 29.1675 -95.7975 202° Southwest 230 265 19,000 420 Climbing Houston Center
10:50PM 29.1014 -95.8194 196° South 248 285 19,800 1,080 Climbing Houston Center
10:51PM 29.0544 -95.8561 214° Southwest 208 239 21,200 1,200 Climbing Houston Center
10:52PM 29.0111 -95.8942 218° Southwest 198 228 22,300 1,260 Climbing Houston Center
10:53PM 28.9558 -95.9383 215° Southwest 201 231 23,800 1,260 Climbing Houston Center
10:54PM 28.9075 -95.9775 215° Southwest 206 237 24,900 1,080 Climbing Houston Center
10:55PM 28.8594 -96.0153 215° Southwest 208 239 26,000 960 Climbing Houston Center
10:56PM 28.8111 -96.0544 215° Southwest 212 244 26,900 780 Climbing Houston Center
10:57PM 28.7608 -96.0953 215° Southwest 219 252 27,600 540 Climbing Houston Center
10:58PM 28.7089 -96.1364 215° Southwest 225 259 28,100 120 Climbing Houston Center
10:59PM 28.6528 -96.1825 216° Southwest 245 282 27,900 -120 Descending Houston Center
11:00PM 28.5911 -96.2311 215° Southwest 264 304 27,900  Level Houston Center
11:01PM 28.5308 -96.2786 215° Southwest 264 304 27,900  Level Houston Center
11:02PM 28.4686 -96.3292 216° Southwest 271 312 27,900  Level Houston Center
11:03PM 28.4072 -96.3783 215° Southwest 270 311 27,900  Level Houston Center
11:04PM 28.3461 -96.4261 215° Southwest 268 308 27,900  Level Houston Center
11:05PM 28.2853 -96.4756 216° Southwest 268 308 27,900  Level Houston Center
11:06PM 28.2244 -96.5222 214° Southwest 266 306 27,900  Level Houston Center
11:07PM 28.1642 -96.5703 215° Southwest 265 305 27,900  Level Houston Center
11:08PM 28.1031 -96.6169 214° Southwest 265 305 27,900  Level Houston Center
11:09PM 28.0317 -96.6753 216° Southwest 264 304 27,900  Level Houston Center
11:10PM 27.9700 -96.7225 214° Southwest 268 308 27,900  Level Houston Center
11:11PM 27.9094 -96.7703 215° Southwest 266 306 27,900  Level Houston Center
11:12PM 27.8478 -96.8192 215° Southwest 269 310 27,900  Level Houston Center
11:13PM 27.7878 -96.8653 214° Southwest 265 305 27,900  Level Houston Center
11:14PM 27.7275 -96.9131 215° Southwest 263 303 27,900  Level Houston Center
11:15PM 27.6667 -96.9597 214° Southwest 263 303 27,900  Level Houston Center
11:16PM 27.6058 -97.0072 215° Southwest 265 305 27,900  Level Houston Center
11:17PM 27.5464 -97.0539 215° Southwest 263 303 27,900  Level Houston Center
11:18PM 27.4872 -97.1000 215° Southwest 259 298 27,900  Level Houston Center
11:19PM 27.4222 -97.1506 215° Southwest 257 296 27,900  Level Houston Center
11:20PM 27.3644 -97.1950 214° Southwest 253 291 27,900  Level Houston Center
11:21PM 27.3069 -97.2397 215° Southwest 251 289 27,900  Level Houston Center
11:22PM 27.2500 -97.2844 215° Southwest 250 288 27,900  Level Houston Center
11:23PM 27.1933 -97.3275 214° Southwest 248 285 27,900  Level Houston Center
11:24PM 27.1358 -97.3719 215° Southwest 249 287 27,900  Level Houston Center
11:26PM 27.0731 -97.4208 215° Southwest 254 292 28,000  Climbing Houston Center
11:27PM 27.0150 -97.4667 215° Southwest 256 295 28,000  Level Houston Center
11:28PM 26.9522 -97.5139 214° Southwest 253 291 28,000  Level Houston Center
11:29PM 26.8953 -97.5575 214° Southwest 248 285 28,000  Level Houston Center
11:30PM 26.8389 -97.6019 215° Southwest 247 284 28,000  Level Houston Center
11:31PM 26.7844 -97.6417 213° Southwest 243 280 28,000  Level Houston Center
11:32PM 26.7281 -97.6864 215° Southwest 245 282 28,000  Level Houston Center
11:33PM 26.6728 -97.7286 214° Southwest 229 264 28,000  Level Houston Center
11:34PM 26.6122 -97.7744 214° Southwest 242 278 28,000  Level Houston Center
11:35PM 26.5569 -97.8175 215° Southwest 243 280 28,000  Level Houston Center
11:36PM 26.5008 -97.8594 214° Southwest 243 280 28,000  Level Houston Center
11:37PM 26.4564 -97.9122 227° Southwest 235 270 28,000  Level Houston Center
11:38PM 26.4189 -97.9697 234° Southwest 230 265 28,000  Level Houston Center
11:39PM 26.3806 -98.0286 234° Southwest 234 269 28,000  Level Houston Center
11:40PM 26.3403 -98.0911 234° Southwest 232 267 28,000  Level Houston Center
11:41PM 26.3033 -98.1492 235° Southwest 231 266 28,000  Level Houston Center
11:42PM 26.2658 -98.2067 234° Southwest 231 266 28,000  Level Houston Center
11:43PM 26.2283 -98.2644 234° Southwest 230 265 28,000  Level Houston Center
11:44PM 26.1914 -98.3211 234° Southwest 227 261 28,000  Level Houston Center
11:45PM 26.1556 -98.3775 235° Southwest 223 257 28,000  Level Houston Center
11:47PM 26.1383 -98.4932 167° South  Level Estimated
11:54PM 25.9550 -98.6151 261° West  Level FlightAware Approximate
11:55PM 25.9459 -98.6800 261° West  Level FlightAware Approximate
11:56PM 25.9371 -98.7449 261° West  Level FlightAware Approximate
11:57PM 25.9283 -98.8099 261° West  Level FlightAware Approximate
11:58PM 25.9195 -98.8748 261° West  Level FlightAware Approximate
11:59PM 25.9106 -98.9397 261° West  Level FlightAware Approximate
12:00AM 25.9017 -99.0046 261° West  Level FlightAware Approximate
12:01AM 25.8932 -99.0695 262° West  Level FlightAware Approximate
12:02AM 25.8847 -99.1345 262° West  Level FlightAware Approximate
12:03AM 25.8763 -99.1995 262° West  Level FlightAware Approximate
12:04AM 25.8678 -99.2644 262° West  Level FlightAware Approximate
12:05AM 25.8593 -99.3294 262° West  Level FlightAware Approximate
12:06AM 25.8507 -99.3943 262° West  Level FlightAware Approximate
12:07AM 25.8500 -99.4599 270° West  Level FlightAware Approximate
12:08AM 25.8450 -99.5249 257° West  Level FlightAware Approximate
12:09AM 25.8327 -99.5891 263° West  Level FlightAware Approximate
12:10AM 25.8255 -99.6542 263° West  Level FlightAware Approximate
12:11AM 25.8183 -99.7193 263° West  Level FlightAware Approximate
12:12AM 25.8111 -99.7844 263° West  Level FlightAware Approximate
12:13AM 25.8038 -99.8495 263° West  Level FlightAware Approximate
12:14AM 25.7952 -99.9144 260° West  Level FlightAware Approximate
12:15AM 25.7853 -99.9790 260° West  Level FlightAware Approximate
12:16AM 25.7754 -100.0437 260° West  Level FlightAware Approximate
12:17AM 25.7715 -100.1065 310° West  Level FlightAware Approximate
12:18AM 25.8093 -100.1569 310° West  Level FlightAware Approximate
12:19AM 25.8431 -100.2107 304° West  Level FlightAware Approximate
12:20AM 25.8656 -100.2372 304° West  Level Estimated
12:21AM 25.8656 -100.2372 304° West  Level Estimated
12:22AM 25.8656 -100.2372 304° West  Level Estimated
12:23AM 25.8656 -100.2372 304° West  Level Estimated
12:24AM 25.8656 -100.2372 304° West  Level Estimated
12:25AM 25.8656 -100.2372 304° West  Level Estimated
12:26AM 25.8656 -100.2372 304° West  Level Estimated
12:27AM 25.8656 -100.2372 304° West  Level Estimated
12:28AM 25.8656 -100.2372 304° West  Level Estimated
12:29AM 25.8656 -100.2372 304° West  Level Estimated
12:30AM 25.8656 -100.2372 304° West  Level Estimated
12:31AM 25.8656 -100.2372 304° West  Level Estimated
12:32AM 25.8656 -100.2372 304° West  Level Estimated
12:33AM 25.8656 -100.2372 304° West  Level Estimated
12:34AM 25.8656 -100.2372 304° West  Level Estimated
12:35AM 25.8656 -100.2372 304° West  Level Estimated
12:36AM 25.8656 -100.2372 304° West  Level Estimated
12:37AM 25.8656 -100.2372 304° West  Level Estimated
12:38AM 25.8656 -100.2372 304° West  Level Estimated
12:39AM 25.8656 -100.2372 304° West  Level Estimated